Millinocket, Maine
Current Conditions -  °F | °C
As of 6:53 PM on Sunday 21 Dec 2014 (Local Time) from KMLT Reporting Station
Overcast Overcast  
Wind Chill: 27°   Ceiling: 700
Heat Index: 27°   Visibility: 10mi
Dew Point: 24°   Wind: 3mph
Humidity: 89%   Direction: 300°WNW
Pressure: 30.37"   Gusts: NA
Location:  45.66°N, 68.71°W
Report Text: KMLT 212353Z AUTO 30003KT 10SM OVC007 M03/M04 A3037 RMK AO2 SLP297 T10281044 11028 21033 53009
Loading
Personal Weather Stations






























Interactive Weather Map New forecast layout! Learn more

10-Day Weather Forecast

Advertisements
Track Severe Weather on mobile